createdAt,value
2024-03-24T00:01:50.826Z,99951.48
2024-03-24T00:04:18.404Z,99965.14
2024-03-24T00:06:46.283Z,99967.95
2024-03-24T00:09:14.029Z,99977.38
2024-03-24T00:11:44.422Z,99988.09
2024-03-24T00:14:12.045Z,99992.15
2024-03-24T00:16:39.693Z,100001.83
2024-03-24T00:19:07.381Z,100009.68
2024-03-24T00:21:36.722Z,100008.21
2024-03-24T00:24:04.999Z,100007.25
2024-03-24T00:26:32.812Z,100008.80
2024-03-24T00:29:00.426Z,100022.41
2024-03-24T00:31:27.949Z,100028.52
2024-03-24T00:33:55.722Z,100028.58
2024-03-24T00:36:23.297Z,100036.31
2024-03-24T00:38:50.918Z,100040.49
2024-03-24T00:41:18.524Z,100046.95
2024-03-24T00:43:46.769Z,100048.85
2024-03-24T00:46:14.512Z,100050.11
2024-03-24T00:48:43.212Z,100050.85
2024-03-24T00:51:11.422Z,100042.02
2024-03-24T00:53:39.599Z,100037.98
2024-03-24T00:56:07.626Z,100030.23
2024-03-24T00:58:38.876Z,100035.25
2024-03-24T01:01:08.653Z,100035.18
2024-03-24T01:03:37.293Z,100039.78
2024-03-24T01:06:08.007Z,100042.16
2024-03-24T01:08:35.634Z,100045.09
2024-03-24T01:11:07.593Z,100054.65
2024-03-24T01:13:35.501Z,100058.67
2024-03-24T01:16:06.056Z,100053.13
2024-03-24T01:18:33.769Z,100041.46
2024-03-24T01:21:01.451Z,100032.14
2024-03-24T01:23:29.730Z,100032.69
2024-03-24T01:25:57.604Z,100028.25
2024-03-24T01:28:25.172Z,100036.36
2024-03-24T01:30:52.754Z,100038.67
2024-03-24T01:33:20.390Z,100037.96
2024-03-24T01:35:48.811Z,100039.42
2024-03-24T01:38:16.430Z,100040.20
2024-03-24T01:40:48.961Z,100042.31
2024-03-24T01:43:17.627Z,100046.42
2024-03-24T01:45:49.408Z,100050.69
2024-03-24T01:48:17.091Z,100058.43
2024-03-24T01:50:52.569Z,100055.97
2024-03-24T01:53:21.458Z,100066.73
2024-03-24T01:55:50.863Z,100080.75
2024-03-24T01:58:18.573Z,100086.48
2024-03-24T02:00:46.789Z,100096.50
2024-03-24T02:03:14.378Z,100104.44
2024-03-24T02:05:41.992Z,100099.48
2024-03-24T02:08:09.897Z,100098.56
2024-03-24T02:10:37.575Z,100097.73
2024-03-24T02:13:05.789Z,100100.75
2024-03-24T02:15:33.412Z,100111.80
2024-03-24T02:18:01.001Z,100122.84
2024-03-24T02:20:28.928Z,100126.77
2024-03-24T02:22:56.534Z,100121.14
2024-03-24T02:25:24.418Z,100127.30
2024-03-24T02:27:52.150Z,100144.27
2024-03-24T02:30:19.957Z,100149.71
2024-03-24T02:32:47.942Z,100146.06
2024-03-24T02:35:15.761Z,100143.16
2024-03-24T02:37:44.572Z,100139.20
2024-03-24T02:40:12.823Z,100147.31
2024-03-24T02:42:41.335Z,100150.02
2024-03-24T02:45:11.778Z,100156.73
2024-03-24T02:47:40.325Z,100155.10
2024-03-24T02:50:09.870Z,100149.81
2024-03-24T02:52:37.959Z,100142.02
2024-03-24T02:55:05.677Z,100143.80
2024-03-24T02:57:33.572Z,100150.44
2024-03-24T03:00:01.219Z,100145.83
2024-03-24T03:02:28.961Z,100139.17
2024-03-24T03:04:56.607Z,100131.61
2024-03-24T03:07:24.634Z,100130.20
2024-03-24T03:09:52.256Z,100132.60
2024-03-24T03:12:19.925Z,100130.55
2024-03-24T03:14:47.518Z,100134.29
2024-03-24T03:17:15.182Z,100144.96
2024-03-24T03:19:42.773Z,100157.84
2024-03-24T03:22:10.512Z,100179.69
2024-03-24T03:24:38.125Z,100187.95
2024-03-24T03:27:06.103Z,100186.94
2024-03-24T03:29:34.163Z,100183.58
2024-03-24T03:32:02.027Z,100173.36
2024-03-24T03:34:29.760Z,100162.26
2024-03-24T03:36:57.360Z,100168.54
2024-03-24T03:39:25.551Z,100166.16
2024-03-24T03:41:56.088Z,100167.92
2024-03-24T03:44:24.488Z,100166.44
2024-03-24T03:46:52.067Z,100175.67
2024-03-24T03:49:21.459Z,100175.88
2024-03-24T03:51:57.280Z,100167.34
2024-03-24T03:54:25.290Z,100148.37
2024-03-24T03:56:53.094Z,100146.00
2024-03-24T03:59:20.728Z,100136.13
2024-03-24T04:01:48.640Z,100128.39
2024-03-24T04:04:16.425Z,100131.27
2024-03-24T04:06:44.162Z,100131.88
2024-03-24T04:09:17.284Z,100145.71
2024-03-24T04:11:45.253Z,100159.42
2024-03-24T04:14:12.882Z,100159.92
2024-03-24T04:16:42.841Z,100143.79
2024-03-24T04:19:10.433Z,100129.40
2024-03-24T04:21:38.134Z,100126.67
2024-03-24T04:24:06.241Z,100131.12
2024-03-24T04:26:33.798Z,100150.16
2024-03-24T04:29:01.464Z,100150.11
2024-03-24T04:31:29.118Z,100148.00
2024-03-24T04:33:56.676Z,100149.83
2024-03-24T04:36:24.532Z,100158.12
2024-03-24T04:38:52.137Z,100150.27
2024-03-24T04:41:20.064Z,100150.10
2024-03-24T04:43:47.626Z,100148.45
2024-03-24T04:46:15.194Z,100145.55
2024-03-24T04:48:43.061Z,100148.83
2024-03-24T04:51:10.713Z,100144.41
2024-03-24T04:53:38.274Z,100131.06
2024-03-24T04:56:06.457Z,100135.45
2024-03-24T04:58:34.650Z,100151.88
2024-03-24T05:01:02.246Z,100152.05
2024-03-24T05:03:30.629Z,100146.73
2024-03-24T05:05:58.325Z,100140.90
2024-03-24T05:08:26.037Z,100148.67
2024-03-24T05:10:53.622Z,100151.73
2024-03-24T05:13:21.456Z,100138.48
2024-03-24T05:15:52.634Z,100119.20
2024-03-24T05:18:20.308Z,100117.69
2024-03-24T05:20:48.283Z,100123.11
2024-03-24T05:23:19.908Z,100116.80
2024-03-24T05:25:53.527Z,100095.50
2024-03-24T05:28:22.473Z,100096.77
2024-03-24T05:30:54.022Z,100121.86
2024-03-24T05:33:21.630Z,100120.72
2024-03-24T05:35:59.692Z,100123.20
2024-03-24T05:38:27.490Z,100126.48
2024-03-24T05:41:03.822Z,100124.88
2024-03-24T05:43:32.128Z,100141.10
2024-03-24T05:45:59.655Z,100148.04
2024-03-24T05:48:27.611Z,100144.52
2024-03-24T05:51:03.653Z,100153.95
2024-03-24T05:53:33.393Z,100159.85
2024-03-24T05:56:01.713Z,100153.29
2024-03-24T05:58:32.403Z,100164.82
2024-03-24T06:01:03.918Z,100174.51
2024-03-24T06:03:32.118Z,100167.27
2024-03-24T06:06:00.235Z,100163.99
2024-03-24T06:08:28.338Z,100168.04
2024-03-24T06:10:56.006Z,100169.30
2024-03-24T06:13:23.731Z,100164.05
2024-03-24T06:15:51.334Z,100163.71
2024-03-24T06:18:18.962Z,100163.95
2024-03-24T06:20:46.714Z,100170.18
2024-03-24T06:23:14.418Z,100169.57
2024-03-24T06:25:42.226Z,100177.83
2024-03-24T06:28:09.743Z,100188.31
2024-03-24T06:30:38.656Z,100183.19
2024-03-24T06:33:06.409Z,100173.92
2024-03-24T06:35:34.269Z,100174.27
2024-03-24T06:38:03.379Z,100186.77
2024-03-24T06:40:31.068Z,100187.98
2024-03-24T06:43:03.440Z,100197.09
2024-03-24T06:45:32.636Z,100199.13
2024-03-24T06:48:01.414Z,100211.77
2024-03-24T06:50:29.175Z,100218.66
2024-03-24T06:52:57.655Z,100236.00
2024-03-24T06:55:26.618Z,100247.97
2024-03-24T06:57:54.803Z,100246.31
2024-03-24T07:00:22.826Z,100237.74
2024-03-24T07:02:50.954Z,100238.29
2024-03-24T07:05:18.580Z,100239.62
2024-03-24T07:07:46.365Z,100236.34
2024-03-24T07:10:14.141Z,100231.45
2024-03-24T07:12:41.985Z,100240.55
2024-03-24T07:15:10.277Z,100235.85
2024-03-24T07:17:37.769Z,100242.48
2024-03-24T07:20:05.836Z,100239.11
2024-03-24T07:22:33.512Z,100237.59
2024-03-24T07:25:01.138Z,100230.48
2024-03-24T07:27:28.957Z,100229.78
2024-03-24T07:29:56.745Z,100233.63
2024-03-24T07:32:24.394Z,100250.33
2024-03-24T07:34:54.430Z,100257.96
2024-03-24T07:37:23.342Z,100265.42
2024-03-24T07:39:51.391Z,100272.11
2024-03-24T07:42:19.133Z,100282.13
2024-03-24T07:44:46.751Z,100292.05
2024-03-24T07:47:15.001Z,100293.33
2024-03-24T07:49:55.987Z,100285.20
2024-03-24T07:52:24.046Z,100272.30
2024-03-24T07:54:51.923Z,100275.16
2024-03-24T07:57:19.530Z,100277.13
2024-03-24T07:59:47.110Z,100279.19
2024-03-24T08:02:14.703Z,100284.94
2024-03-24T08:04:42.677Z,100284.89
2024-03-24T08:07:10.435Z,100279.91
2024-03-24T08:09:38.179Z,100282.02
2024-03-24T08:12:06.047Z,100276.96
2024-03-24T08:14:33.705Z,100283.49
2024-03-24T08:17:01.492Z,100291.23
2024-03-24T08:19:29.155Z,100294.09
2024-03-24T08:21:57.665Z,100294.61
2024-03-24T08:24:25.516Z,100295.44
2024-03-24T08:26:53.096Z,100289.73
2024-03-24T08:29:21.920Z,100297.34
2024-03-24T08:31:49.777Z,100306.17
2024-03-24T08:34:17.917Z,100314.50
2024-03-24T08:36:46.246Z,100315.64
2024-03-24T08:39:15.221Z,100328.09
2024-03-24T08:41:42.890Z,100333.81
2024-03-24T08:44:11.231Z,100333.41
2024-03-24T08:46:38.878Z,100322.05
2024-03-24T08:49:06.584Z,100302.59
2024-03-24T08:51:35.588Z,100297.27
2024-03-24T08:54:03.495Z,100296.60
2024-03-24T08:56:31.254Z,100282.06
2024-03-24T08:58:59.057Z,100273.06
2024-03-24T09:01:28.076Z,100284.54
2024-03-24T09:04:00.857Z,100279.21
2024-03-24T09:06:28.769Z,100256.52
2024-03-24T09:08:57.235Z,100265.41
2024-03-24T09:11:26.091Z,100271.48
2024-03-24T09:13:53.654Z,100261.43
2024-03-24T09:16:21.400Z,100247.45
2024-03-24T09:18:49.136Z,100249.91
2024-03-24T09:21:16.854Z,100257.21
2024-03-24T09:23:44.640Z,100263.17
2024-03-24T09:26:12.375Z,100269.14
2024-03-24T09:28:39.971Z,100266.10
2024-03-24T09:31:08.061Z,100259.23
2024-03-24T09:33:35.824Z,100267.52
2024-03-24T09:36:04.506Z,100281.90
2024-03-24T09:38:33.005Z,100275.12
2024-03-24T09:41:00.679Z,100267.14
2024-03-24T09:43:28.862Z,100277.83
2024-03-24T09:45:56.448Z,100269.70
2024-03-24T09:48:26.135Z,100263.81
2024-03-24T09:50:57.899Z,100267.45
2024-03-24T09:53:25.579Z,100279.75
2024-03-24T09:55:53.905Z,100290.29
2024-03-24T09:58:22.624Z,100292.98
2024-03-24T10:00:50.973Z,100285.44
2024-03-24T10:03:19.041Z,100276.53
2024-03-24T10:05:48.667Z,100270.30
2024-03-24T10:08:17.756Z,100265.34
2024-03-24T10:10:45.477Z,100264.11
2024-03-24T10:13:13.071Z,100250.32
2024-03-24T10:15:40.761Z,100253.23
2024-03-24T10:18:10.921Z,100248.31
2024-03-24T10:20:39.767Z,100247.73
2024-03-24T10:23:07.777Z,100248.38
2024-03-24T10:25:35.386Z,100245.67
2024-03-24T10:28:03.460Z,100236.75
2024-03-24T10:30:31.186Z,100222.98
2024-03-24T10:32:59.022Z,100225.48
2024-03-24T10:35:28.178Z,100243.02
2024-03-24T10:37:55.767Z,100261.00
2024-03-24T10:40:23.559Z,100269.12
2024-03-24T10:42:55.123Z,100276.63
2024-03-24T10:45:25.267Z,100268.66
2024-03-24T10:48:36.285Z,100262.02
2024-03-24T10:51:10.658Z,100265.67
2024-03-24T10:53:39.184Z,100267.53
2024-03-24T10:56:08.765Z,100254.40
2024-03-24T10:58:36.933Z,100225.42
2024-03-24T11:01:04.985Z,100207.96
2024-03-24T11:03:33.882Z,100203.47
2024-03-24T11:06:02.882Z,100218.98
2024-03-24T11:08:30.480Z,100225.31
2024-03-24T11:11:02.603Z,100220.95
2024-03-24T11:13:37.438Z,100206.96
2024-03-24T11:16:05.774Z,100208.27
2024-03-24T11:18:33.600Z,100204.57
2024-03-24T11:21:05.045Z,100198.41
2024-03-24T11:23:38.524Z,100185.31
2024-03-24T11:26:12.829Z,100186.48
2024-03-24T11:28:51.352Z,100190.92
2024-03-24T11:31:25.076Z,100196.24
2024-03-24T11:34:05.395Z,100196.98
2024-03-24T11:36:36.492Z,100200.23
2024-03-24T11:39:07.197Z,100196.52
2024-03-24T11:41:36.607Z,100185.08
2024-03-24T11:44:05.786Z,100190.41
2024-03-24T11:46:37.202Z,100184.98
2024-03-24T11:49:05.239Z,100180.80
2024-03-24T11:51:33.619Z,100181.98
2024-03-24T11:54:02.908Z,100184.45
2024-03-24T11:56:31.058Z,100185.92
2024-03-24T11:58:59.040Z,100180.92
2024-03-24T12:01:27.101Z,100176.15
2024-03-24T12:03:54.967Z,100160.94
2024-03-24T12:06:24.080Z,100153.03
2024-03-24T12:08:52.841Z,100151.11
2024-03-24T12:11:24.082Z,100146.79
2024-03-24T12:13:55.266Z,100140.20
2024-03-24T12:16:23.666Z,100141.27
2024-03-24T12:18:51.338Z,100135.27
2024-03-24T12:21:19.213Z,100127.96
2024-03-24T12:23:46.856Z,100133.78
2024-03-24T12:26:21.803Z,100146.55
2024-03-24T12:28:54.102Z,100144.52
2024-03-24T12:31:23.379Z,100140.28
2024-03-24T12:33:54.082Z,100139.84
2024-03-24T12:36:22.214Z,100129.94
2024-03-24T12:38:50.256Z,100122.07
2024-03-24T12:41:22.309Z,100120.30
2024-03-24T12:43:59.810Z,100123.10
2024-03-24T12:46:35.674Z,100132.27
2024-03-24T12:49:16.060Z,100139.12
2024-03-24T12:51:44.499Z,100148.77
2024-03-24T12:54:18.450Z,100145.19
2024-03-24T12:56:48.291Z,100147.63
2024-03-24T12:59:19.240Z,100141.58
2024-03-24T13:01:47.161Z,100136.77
2024-03-24T13:04:17.159Z,100134.84
2024-03-24T13:06:46.551Z,100133.10
2024-03-24T13:09:17.742Z,100130.33
2024-03-24T13:11:45.299Z,100131.42
2024-03-24T13:14:13.504Z,100124.16
2024-03-24T13:17:06.569Z,100116.05
2024-03-24T13:19:46.892Z,100117.14
2024-03-24T13:22:14.573Z,100115.06
2024-03-24T13:24:53.618Z,100106.21
2024-03-24T13:27:30.261Z,100099.73
2024-03-24T13:30:00.996Z,100106.15
2024-03-24T13:32:30.463Z,100101.14
2024-03-24T13:34:58.052Z,100092.48
2024-03-24T13:37:36.619Z,100102.36
2024-03-24T13:40:29.273Z,100109.56
2024-03-24T13:43:14.977Z,100103.36
2024-03-24T13:46:11.686Z,100086.83
2024-03-24T13:48:42.254Z,100095.66
2024-03-24T13:51:11.339Z,100096.79
2024-03-24T13:53:40.509Z,100087.42
2024-03-24T13:56:08.521Z,100068.98
2024-03-24T13:58:36.111Z,100060.36
2024-03-24T14:01:03.917Z,100060.72
2024-03-24T14:03:32.270Z,100063.48
2024-03-24T14:06:00.059Z,100064.48
2024-03-24T14:08:28.388Z,100058.94
2024-03-24T14:10:56.724Z,100053.71
2024-03-24T14:13:44.319Z,100046.40
2024-03-24T14:16:29.551Z,100044.75
2024-03-24T14:19:29.896Z,100044.73
2024-03-24T14:22:01.959Z,100033.39
2024-03-24T14:24:51.651Z,100040.54
2024-03-24T14:27:21.062Z,100045.65
2024-03-24T14:29:48.978Z,100047.98
2024-03-24T14:32:17.028Z,100049.59
2024-03-24T14:34:45.060Z,100045.55
2024-03-24T14:37:25.120Z,100049.60
2024-03-24T14:39:52.682Z,100052.40
2024-03-24T14:42:37.456Z,100053.35
2024-03-24T14:45:33.174Z,100052.88
2024-03-24T14:48:03.699Z,100052.35
2024-03-24T14:50:31.409Z,100051.02
2024-03-24T14:52:59.008Z,100051.39
2024-03-24T14:55:26.913Z,100049.14
2024-03-24T14:57:56.103Z,100034.46
2024-03-24T15:00:24.763Z,100024.93
2024-03-24T15:02:55.513Z,100018.38
2024-03-24T15:05:25.971Z,100018.48
2024-03-24T15:07:56.705Z,100027.40
2024-03-24T15:10:29.629Z,100039.77
2024-03-24T15:12:58.949Z,100050.35
2024-03-24T15:15:27.953Z,100038.41
2024-03-24T15:17:56.822Z,100020.49
2024-03-24T15:20:28.069Z,100001.24
2024-03-24T15:22:57.069Z,99997.54
2024-03-24T15:25:25.578Z,100007.35
2024-03-24T15:27:53.657Z,99999.09
2024-03-24T15:30:21.477Z,99991.83
2024-03-24T15:32:49.031Z,99989.95
2024-03-24T15:35:17.000Z,99991.23
2024-03-24T15:37:45.678Z,99989.78
2024-03-24T15:40:13.646Z,99983.13
2024-03-24T15:42:44.946Z,99981.38
2024-03-24T15:45:12.871Z,99981.30
2024-03-24T15:47:41.546Z,99984.36
2024-03-24T15:50:10.006Z,99991.76
2024-03-24T15:52:38.416Z,99992.09
2024-03-24T15:55:07.102Z,99993.11
2024-03-24T15:57:52.592Z,99993.81
2024-03-24T16:00:26.298Z,99996.40
2024-03-24T16:02:57.729Z,99999.88
2024-03-24T16:05:25.613Z,100004.20
2024-03-24T16:07:54.825Z,100003.33
2024-03-24T16:10:38.383Z,100003.88
2024-03-24T16:13:22.891Z,99995.73
2024-03-24T16:15:50.991Z,99984.31
2024-03-24T16:18:18.711Z,99983.60
2024-03-24T16:21:00.541Z,99987.22
2024-03-24T16:23:30.546Z,99996.06
2024-03-24T16:26:00.040Z,99998.02
2024-03-24T16:28:29.160Z,100000.79
2024-03-24T16:30:58.886Z,100004.91
2024-03-24T16:33:28.305Z,100008.77
2024-03-24T16:35:58.475Z,100004.63
2024-03-24T16:38:27.101Z,100007.19
2024-03-24T16:40:55.375Z,99995.02
2024-03-24T16:43:23.522Z,99981.52
2024-03-24T16:45:51.196Z,99981.55
2024-03-24T16:48:18.942Z,99990.30
2024-03-24T16:50:47.883Z,99994.11
2024-03-24T16:53:15.909Z,100000.91
2024-03-24T16:55:45.507Z,100003.75
2024-03-24T16:58:18.506Z,100003.83
2024-03-24T17:00:47.686Z,99992.20
2024-03-24T17:03:15.603Z,99986.72
2024-03-24T17:05:43.804Z,99972.63
2024-03-24T17:08:11.632Z,99964.61
2024-03-24T17:10:41.918Z,99965.40
2024-03-24T17:13:09.729Z,99973.64
2024-03-24T17:15:37.698Z,99980.88
2024-03-24T17:18:06.922Z,99987.84
2024-03-24T17:20:37.442Z,99985.98
2024-03-24T17:23:06.612Z,99981.17
2024-03-24T17:25:34.531Z,99971.52
2024-03-24T17:28:02.274Z,99962.15
2024-03-24T17:30:32.506Z,99960.33
2024-03-24T17:33:02.077Z,99963.95
2024-03-24T17:35:29.841Z,99968.33
2024-03-24T17:37:58.696Z,99968.02
2024-03-24T17:40:26.338Z,99970.73
2024-03-24T17:42:54.132Z,99975.34
2024-03-24T17:45:22.187Z,99979.82
2024-03-24T17:47:50.635Z,99979.23
2024-03-24T17:50:18.248Z,99978.48
2024-03-24T17:52:46.178Z,99980.96
2024-03-24T17:55:16.532Z,99981.84
2024-03-24T17:57:44.090Z,99974.18
2024-03-24T18:00:12.982Z,99968.40
2024-03-24T18:02:41.069Z,99964.63
2024-03-24T18:05:09.356Z,99951.54
2024-03-24T18:07:56.395Z,99942.30
2024-03-24T18:10:28.198Z,99940.70
2024-03-24T18:12:58.432Z,99941.62
2024-03-24T18:15:27.968Z,99939.67
2024-03-24T18:17:56.694Z,99945.79
2024-03-24T18:20:26.092Z,99945.89
2024-03-24T18:22:53.939Z,99949.14
2024-03-24T18:25:22.844Z,99954.33
2024-03-24T18:27:50.541Z,99960.85
2024-03-24T18:30:18.137Z,99967.99
2024-03-24T18:32:53.023Z,99982.59
2024-03-24T18:35:22.158Z,99987.05
2024-03-24T18:37:50.398Z,99983.59
2024-03-24T18:40:18.202Z,99981.55
2024-03-24T18:42:45.974Z,99980.92
2024-03-24T18:45:13.727Z,99980.81
2024-03-24T18:47:41.530Z,99984.45
2024-03-24T18:50:09.710Z,99989.46
2024-03-24T18:52:37.798Z,100006.30
2024-03-24T18:55:05.960Z,100016.83
2024-03-24T18:57:33.769Z,100002.11
2024-03-24T19:00:01.398Z,99986.87
2024-03-24T19:02:30.237Z,99973.31
2024-03-24T19:04:59.130Z,99969.55
2024-03-24T19:07:26.763Z,99966.93
2024-03-24T19:09:55.984Z,99962.65
2024-03-24T19:12:26.630Z,99973.58
2024-03-24T19:14:57.942Z,99995.42
2024-03-24T19:17:25.881Z,100009.98
2024-03-24T19:19:54.878Z,100020.38
2024-03-24T19:22:23.539Z,100027.80
2024-03-24T19:24:51.230Z,100035.12
2024-03-24T19:27:22.186Z,100042.73
2024-03-24T19:29:49.950Z,100046.15
2024-03-24T19:32:17.677Z,100050.17
2024-03-24T19:34:45.462Z,100047.80
2024-03-24T19:37:13.137Z,100046.36
2024-03-24T19:39:41.149Z,100040.17
2024-03-24T19:42:08.951Z,100038.57
2024-03-24T19:44:36.618Z,100030.39
2024-03-24T19:47:04.334Z,100013.38
2024-03-24T19:49:33.961Z,99987.22
2024-03-24T19:52:01.774Z,99964.34
2024-03-24T19:54:31.412Z,99944.73
2024-03-24T19:56:59.774Z,99938.67
2024-03-24T19:59:27.286Z,99951.80
2024-03-24T20:01:55.366Z,99971.52
2024-03-24T20:04:24.089Z,99980.71
2024-03-24T20:06:52.980Z,99981.48
2024-03-24T20:09:20.710Z,99976.19
2024-03-24T20:11:51.010Z,99955.19
2024-03-24T20:14:19.710Z,99938.86
2024-03-24T20:16:48.104Z,99941.05
2024-03-24T20:19:18.355Z,99967.86
2024-03-24T20:21:48.241Z,99983.02
2024-03-24T20:24:15.982Z,99980.41
2024-03-24T20:26:47.649Z,99975.70
2024-03-24T20:29:18.829Z,99974.02
2024-03-24T20:31:46.570Z,99972.51
2024-03-24T20:34:15.146Z,99971.13
2024-03-24T20:36:42.608Z,99966.81
2024-03-24T20:39:10.828Z,99967.15
2024-03-24T20:41:39.261Z,99965.71
2024-03-24T20:44:06.781Z,99972.20
2024-03-24T20:46:35.980Z,99970.80
2024-03-24T20:49:06.472Z,99967.25
2024-03-24T20:51:34.142Z,99960.61
2024-03-24T20:54:05.295Z,99958.36
2024-03-24T20:56:33.207Z,99945.80
2024-03-24T20:59:02.993Z,99929.26
2024-03-24T21:01:32.273Z,99917.11
2024-03-24T21:04:00.067Z,99912.34
2024-03-24T21:06:28.306Z,99908.22
2024-03-24T21:08:56.193Z,99903.95
2024-03-24T21:11:24.122Z,99905.36
2024-03-24T21:13:51.817Z,99903.98
2024-03-24T21:16:19.869Z,99910.33
2024-03-24T21:18:48.406Z,99917.11
2024-03-24T21:21:16.355Z,99918.29
2024-03-24T21:23:45.637Z,99916.96
2024-03-24T21:26:13.291Z,99920.77
2024-03-24T21:28:41.171Z,99927.26
2024-03-24T21:31:09.627Z,99943.92
2024-03-24T21:33:40.402Z,99952.67
2024-03-24T21:36:11.025Z,99954.66
2024-03-24T21:38:57.927Z,99959.88
2024-03-24T21:41:44.748Z,99957.86
2024-03-24T21:44:12.335Z,99959.02
2024-03-24T21:46:40.151Z,99963.14
2024-03-24T21:49:08.547Z,99967.59
2024-03-24T21:51:36.163Z,99963.89
2024-03-24T21:54:06.473Z,99962.71
2024-03-24T21:56:34.132Z,99954.17
2024-03-24T21:59:01.739Z,99955.17
2024-03-24T22:01:29.381Z,99957.98
2024-03-24T22:03:57.006Z,99954.32
2024-03-24T22:06:28.541Z,99953.77
2024-03-24T22:08:56.289Z,99956.30
2024-03-24T22:11:24.449Z,99952.25
2024-03-24T22:13:52.488Z,99952.83
2024-03-24T22:16:20.294Z,99951.49
2024-03-24T22:18:48.242Z,99950.86
2024-03-24T22:21:15.853Z,99948.36
2024-03-24T22:23:47.929Z,99947.39
2024-03-24T22:26:16.944Z,99947.28
2024-03-24T22:28:45.960Z,99945.48
2024-03-24T22:31:13.832Z,99943.67
2024-03-24T22:33:43.245Z,99939.70
2024-03-24T22:36:12.225Z,99935.16
2024-03-24T22:38:45.923Z,99931.14
2024-03-24T22:41:13.703Z,99930.77
2024-03-24T22:43:41.537Z,99931.15
2024-03-24T22:46:09.246Z,99935.61
2024-03-24T22:48:37.351Z,99941.76
2024-03-24T22:51:05.089Z,99938.95
2024-03-24T22:53:32.715Z,99939.67
2024-03-24T22:56:00.354Z,99939.56
2024-03-24T22:58:29.884Z,99936.16
2024-03-24T23:00:57.472Z,99938.58
2024-03-24T23:03:25.131Z,99935.27
2024-03-24T23:05:52.885Z,99936.97
2024-03-24T23:08:21.779Z,99934.22
2024-03-24T23:10:49.744Z,99928.11
2024-03-24T23:13:17.920Z,99931.88
2024-03-24T23:15:45.538Z,99934.44
2024-03-24T23:18:13.273Z,99934.63
2024-03-24T23:20:40.917Z,99937.94
2024-03-24T23:23:08.559Z,99941.64
2024-03-24T23:25:36.284Z,99945.76
2024-03-24T23:28:04.279Z,99942.79
2024-03-24T23:30:31.956Z,99944.38
2024-03-24T23:32:59.516Z,99945.11
2024-03-24T23:35:27.172Z,99949.86
2024-03-24T23:37:54.868Z,99954.89
2024-03-24T23:40:22.498Z,99958.54
2024-03-24T23:42:55.931Z,99966.78
2024-03-24T23:45:23.944Z,99968.64
2024-03-24T23:47:55.248Z,99965.86
2024-03-24T23:50:24.099Z,99960.20
2024-03-24T23:52:51.890Z,99959.48
2024-03-24T23:55:21.121Z,99964.48
2024-03-24T23:57:48.735Z,99968.96
